Time;durP1;ratioP1;P1;durP2;ratioP2;P2;SDS_P1;SDS_P2;PMS_P1;PMS_P2;Temp;Humidity;BMP_temperature;BMP_pressure;BME280_temperature;BME280_humidity;BME280_pressure;Samples;Min_cycle;Max_cycle;Signal;HPM_P1;HPM_P2
2023/09/17 00:00:22;;;;;;;12.27;6.40;;;17.60;99.90;;;;;;5019516;28;20049;-64
2023/09/17 00:06:37;;;;;;;8.57;6.50;;;17.40;99.90;;;;;;4936262;28;20731;-65
2023/09/17 00:09:18;;;;;;;10.05;6.55;;;17.40;99.90;;;;;;4954071;23;20761;-67
2023/09/17 00:11:47;;;;;;;;;;;17.40;99.90;;;;;;4966938;28;20100;-66
2023/09/17 00:14:25;;;;;;;9.88;6.07;;;17.40;99.90;;;;;;4978413;28;19968;-67
2023/09/17 00:16:51;;;;;;;12.13;6.00;;;17.40;99.90;;;;;;4965907;28;20070;-66
2023/09/17 00:19:17;;;;;;;;;;;17.40;99.90;;;;;;4945238;28;20077;-65
2023/09/17 00:21:43;;;;;;;9.55;5.97;;;17.40;99.90;;;;;;4958463;28;20489;-67
2023/09/17 00:27:09;;;;;;;8.25;5.65;;;17.40;99.90;;;;;;5030799;28;19971;-90
2023/09/17 00:29:38;;;;;;;;;;;17.40;99.90;;;;;;4985374;28;20034;-89
2023/09/17 00:32:07;;;;;;;14.95;6.57;;;17.40;99.90;;;;;;4985803;28;20008;-88
2023/09/17 00:34:52;;;;;;;11.43;5.80;;;17.30;99.90;;;;;;4992119;28;20491;-89
2023/09/17 00:37:51;;;;;;;8.05;5.85;;;17.30;99.90;;;;;;4989677;28;20538;-89
2023/09/17 00:40:20;;;;;;;18.83;5.97;;;17.30;99.90;;;;;;5005435;28;20042;-86
2023/09/17 00:46:37;;;;;;;11.23;6.65;;;17.30;99.90;;;;;;5017800;28;20407;-89
2023/09/17 00:49:04;;;;;;;9.27;6.32;;;17.20;99.90;;;;;;4994938;28;20018;-84
2023/09/17 00:51:41;;;;;;;8.73;6.63;;;17.20;99.90;;;;;;4990474;28;20038;-85
2023/09/17 00:54:28;;;;;;;11.10;6.03;;;17.20;99.90;;;;;;5012506;28;20557;-84
2023/09/17 00:57:07;;;;;;;12.20;6.57;;;17.20;99.90;;;;;;5002520;28;20042;-85
2023/09/17 01:03:59;;;;;;;12.15;5.13;;;17.20;99.90;;;;;;4994063;23;20055;-67
2023/09/17 01:06:56;;;;;;;7.93;5.72;;;17.10;99.90;;;;;;4903034;29;20060;-64
2023/09/17 01:09:28;;;;;;;7.53;5.25;;;17.10;99.90;;;;;;4910869;23;20067;-65
2023/09/17 01:12:00;;;;;;;10.60;5.95;;;17.10;99.90;;;;;;4945358;28;20039;-66
2023/09/17 01:14:26;;;;;;;8.65;5.78;;;17.10;99.90;;;;;;4931585;28;20101;-66
2023/09/17 01:16:54;;;;;;;7.07;4.97;;;17.10;99.90;;;;;;4938004;28;20819;-65
2023/09/17 01:19:26;;;;;;;7.80;5.45;;;17.10;99.90;;;;;;4942988;28;20210;-65
2023/09/17 01:22:01;;;;;;;7.10;5.43;;;17.10;99.90;;;;;;4953455;28;20093;-66
2023/09/17 01:32:54;;;;;;;7.95;5.95;;;17.00;99.90;;;;;;4890068;29;20063;-78
2023/09/17 01:36:10;;;;;;;7.13;5.75;;;17.00;99.90;;;;;;4926482;29;20079;-78
2023/09/17 01:38:46;;;;;;;9.23;5.47;;;16.90;99.90;;;;;;4904357;28;20051;-78
2023/09/17 01:45:37;;;;;;;12.25;6.15;;;16.90;99.90;;;;;;4866842;29;20053;-80
2023/09/17 01:48:03;;;;;;;10.20;6.20;;;16.80;99.90;;;;;;4840794;29;20555;-80
2023/09/17 01:50:47;;;;;;;7.05;5.47;;;16.80;99.90;;;;;;4903326;29;20073;-80
2023/09/17 01:54:09;;;;;;;9.15;5.63;;;16.80;99.90;;;;;;4904733;29;20044;-77
2023/09/17 01:56:41;;;;;;;14.82;6.20;;;16.80;99.90;;;;;;4862666;29;20037;-79
2023/09/17 02:00:16;;;;;;;12.32;5.85;;;16.80;99.90;;;;;;4844229;29;20137;-78
2023/09/17 02:02:47;;;;;;;9.55;5.68;;;16.80;99.90;;;;;;4838423;29;20423;-78
2023/09/17 02:05:25;;;;;;;8.52;5.68;;;16.70;99.90;;;;;;4906489;28;20090;-77
2023/09/17 02:07:57;;;;;;;11.18;5.75;;;16.70;99.90;;;;;;4919607;29;20039;-77
2023/09/17 02:10:25;;;;;;;8.93;5.88;;;16.70;99.90;;;;;;4923875;28;20516;-76
2023/09/17 02:12:51;;;;;;;11.07;5.75;;;16.70;99.90;;;;;;4922139;28;20050;-80
2023/09/17 02:15:17;;;;;;;9.98;4.85;;;16.60;99.90;;;;;;4918210;28;20036;-80
2023/09/17 02:17:43;;;;;;;;;;;16.60;99.90;;;;;;4920354;28;20057;-80
2023/09/17 02:20:11;;;;;;;9.00;5.72;;;16.60;99.90;;;;;;4918505;28;19922;-79
2023/09/17 02:22:38;;;;;;;15.93;6.10;;;16.70;99.90;;;;;;4927063;28;20043;-78
2023/09/17 02:25:05;;;;;;;17.73;6.43;;;16.70;99.90;;;;;;4916399;28;20043;-78
2023/09/17 02:27:31;;;;;;;9.90;5.40;;;16.60;99.90;;;;;;4923148;29;20043;-78
2023/09/17 02:30:05;;;;;;;;;;;16.60;99.90;;;;;;4921499;29;20046;-77
2023/09/17 02:32:37;;;;;;;9.38;5.90;;;16.60;99.90;;;;;;4931011;28;19928;-79
2023/09/17 02:35:13;;;;;;;8.00;5.43;;;16.60;99.90;;;;;;4945062;28;20106;-78
2023/09/17 02:37:57;;;;;;;13.45;6.00;;;16.70;99.90;;;;;;4935796;29;20070;-77
2023/09/17 02:40:31;;;;;;;;;;;16.70;99.90;;;;;;4920028;28;20077;-80
2023/09/17 02:43:15;;;;;;;11.55;6.15;;;16.60;99.90;;;;;;4927460;29;19921;-81
2023/09/17 02:45:42;;;;;;;;;;;16.60;99.90;;;;;;4920068;28;20051;-81
2023/09/17 02:48:11;;;;;;;12.27;5.13;;;16.60;99.90;;;;;;4926719;28;20649;-78
2023/09/17 02:50:41;;;;;;;7.70;6.07;;;16.60;99.90;;;;;;4913909;28;20122;-80
2023/09/17 02:53:46;;;;;;;7.78;6.22;;;16.60;99.90;;;;;;4919550;29;20039;-78
2023/09/17 02:59:49;;;;;;;15.13;6.60;;;16.60;99.90;;;;;;4911738;28;20050;-78
2023/09/17 03:02:17;;;;;;;;;;;16.50;99.90;;;;;;4938843;28;20043;-79
2023/09/17 03:04:46;;;;;;;7.10;5.68;;;16.40;99.90;;;;;;4937953;28;19950;-80
2023/09/17 03:07:11;;;;;;;13.38;6.00;;;16.40;99.90;;;;;;4931084;28;20517;-80
2023/09/17 03:09:39;;;;;;;;;;;16.40;99.90;;;;;;4919165;29;20040;-78
2023/09/17 03:13:05;;;;;;;8.15;5.63;;;16.40;99.90;;;;;;4933668;29;20265;-81
2023/09/17 03:15:30;;;;;;;10.07;5.63;;;16.30;99.90;;;;;;4931370;29;20043;-80
2023/09/17 03:17:59;;;;;;;;;;;16.40;99.90;;;;;;4941630;28;20035;-78
2023/09/17 03:20:47;;;;;;;7.57;4.68;;;16.30;99.90;;;;;;4925258;29;19993;-77
2023/09/17 03:23:16;;;;;;;15.38;5.90;;;16.30;99.90;;;;;;4929261;28;20055;-80
2023/09/17 03:25:41;;;;;;;;;;;16.40;99.90;;;;;;4951623;28;20043;-79
2023/09/17 03:28:19;;;;;;;8.00;5.70;;;16.40;99.90;;;;;;4948143;28;19949;-78
2023/09/17 03:30:45;;;;;;;13.95;5.97;;;16.50;99.90;;;;;;4940176;28;20042;-80
2023/09/17 03:37:03;;;;;;;7.13;4.50;;;16.50;99.90;;;;;;4950453;28;19918;-79
2023/09/17 03:39:29;;;;;;;6.75;4.50;;;16.70;99.90;;;;;;4920477;28;20125;-78
2023/09/17 03:42:02;;;;;;;;;;;16.80;99.90;;;;;;4937628;28;20043;-81
2023/09/17 03:44:28;;;;;;;12.23;4.93;;;16.90;99.90;;;;;;4934999;28;20578;-80
2023/09/17 03:46:57;;;;;;;;;;;17.00;99.90;;;;;;4943648;28;20047;-81
2023/09/17 03:49:26;;;;;;;9.10;4.70;;;17.00;99.90;;;;;;4935914;28;19922;-79
2023/09/17 03:51:52;;;;;;;5.72;4.55;;;17.00;99.90;;;;;;4954590;28;20035;-79
2023/09/17 03:54:18;;;;;;;6.20;4.57;;;17.00;99.90;;;;;;4931142;29;20126;-81
2023/09/17 03:59:57;;;;;;;8.80;4.65;;;16.90;99.90;;;;;;4920004;29;19927;-81
2023/09/17 04:02:30;;;;;;;6.82;4.80;;;17.00;99.90;;;;;;4947323;28;20150;-79
2023/09/17 04:04:58;;;;;;;6.32;4.95;;;17.00;99.90;;;;;;4947923;28;20043;-78
2023/09/17 04:07:24;;;;;;;12.40;4.32;;;16.90;99.90;;;;;;4936283;28;20058;-77
2023/09/17 04:09:50;;;;;;;;;;;17.00;99.90;;;;;;4935119;28;20043;-79
2023/09/17 04:12:16;;;;;;;7.13;4.45;;;17.00;99.90;;;;;;4935796;28;19918;-81
2023/09/17 04:14:41;;;;;;;5.13;4.05;;;17.00;99.90;;;;;;4956337;28;20043;-79
2023/09/17 04:17:07;;;;;;;;;;;17.00;99.90;;;;;;4947912;28;20058;-80
2023/09/17 04:20:58;;;;;;;;;;;;;;;;;;;;;
2023/09/17 04:23:50;;;;;;;8.40;4.30;;;17.10;99.90;;;;;;4894875;29;20135;-81
2023/09/17 04:29:57;;;;;;;8.48;4.25;;;16.90;99.90;;;;;;4930632;28;20126;-79
2023/09/17 04:32:23;;;;;;;8.68;4.70;;;16.90;99.90;;;;;;4922432;28;20453;-79
2023/09/17 04:34:48;;;;;;;;;;;16.90;99.90;;;;;;4939866;28;20051;-81
2023/09/17 04:37:19;;;;;;;9.95;4.43;;;16.90;99.90;;;;;;4937778;29;19925;-80
2023/09/17 04:39:48;;;;;;;7.63;4.32;;;16.80;99.90;;;;;;4957835;28;20095;-80
2023/09/17 04:49:06;;;;;;;8.60;4.80;;;16.70;99.90;;;;;;4963727;28;20047;-67
2023/09/17 04:51:33;;;;;;;5.63;3.80;;;16.60;99.90;;;;;;4961402;28;20323;-66
2023/09/17 04:54:45;;;;;;;6.85;4.43;;;16.60;99.90;;;;;;4959856;28;20803;-66
2023/09/17 04:57:10;;;;;;;7.45;3.90;;;16.50;99.90;;;;;;4946490;28;20719;-66
2023/09/17 04:59:38;;;;;;;4.53;3.67;;;16.60;99.90;;;;;;4952528;28;20043;-64
2023/09/17 05:02:03;;;;;;;;;;;16.70;99.90;;;;;;4945893;28;20065;-65
2023/09/17 05:04:32;;;;;;;7.28;4.03;;;16.70;99.90;;;;;;4941545;28;19918;-66
2023/09/17 05:07:01;;;;;;;4.82;3.55;;;16.80;99.90;;;;;;4945463;28;20122;-64
2023/09/17 05:09:26;;;;;;;;;;;16.90;99.90;;;;;;4953076;28;20141;-67
2023/09/17 05:11:52;;;;;;;4.60;3.60;;;16.90;99.90;;;;;;4951918;28;19922;-66
2023/09/17 05:17:38;;;;;;;7.13;4.07;;;17.10;99.90;;;;;;4943533;28;20164;-67
2023/09/17 05:20:08;;;;;;;;;;;17.20;99.90;;;;;;4946551;28;20405;-65
2023/09/17 05:22:34;;;;;;;6.25;3.83;;;17.20;99.90;;;;;;4947235;28;19945;-67
2023/09/17 05:25:01;;;;;;;5.32;4.22;;;17.30;99.90;;;;;;4958205;23;20494;-65
2023/09/17 05:27:32;;;;;;;8.40;3.97;;;17.30;99.90;;;;;;4949631;28;20047;-67
2023/09/17 05:30:09;;;;;;;4.03;3.38;;;17.20;99.90;;;;;;4963170;28;20043;-66
2023/09/17 05:32:50;;;;;;;4.93;4.07;;;17.20;99.90;;;;;;4927470;28;20092;-66
2023/09/17 05:35:16;;;;;;;9.23;3.90;;;17.20;99.90;;;;;;4917586;29;20455;-65
2023/09/17 05:37:45;;;;;;;6.75;3.90;;;17.30;99.90;;;;;;4940068;28;20087;-63
2023/09/17 05:40:14;;;;;;;5.60;3.58;;;17.30;99.90;;;;;;4910801;29;20525;-65
2023/09/17 05:42:40;;;;;;;4.97;4.00;;;17.40;99.90;;;;;;4914910;29;20039;-66
2023/09/17 05:45:06;;;;;;;;;;;17.40;99.90;;;;;;4920860;29;20051;-66
2023/09/17 05:47:32;;;;;;;;;;;17.40;99.90;;;;;;4916166;28;19919;-66
2023/09/17 05:49:59;;;;;;;;;;;17.40;99.90;;;;;;4925175;29;19926;-68
2023/09/17 05:52:30;;;;;;;;;;;17.40;99.90;;;;;;4908205;29;19970;-67
2023/09/17 05:54:59;;;;;;;;;;;17.40;99.90;;;;;;4926626;28;20655;-66
2023/09/17 05:57:25;;;;;;;;;;;17.40;99.90;;;;;;4930038;28;20403;-67
2023/09/17 06:00:09;;;;;;;;;;;17.30;99.90;;;;;;4926804;28;20033;-66
2023/09/17 06:02:38;;;;;;;;;;;17.40;99.90;;;;;;4904405;29;20364;-64
2023/09/17 06:05:07;;;;;;;;;;;17.30;99.90;;;;;;4910148;29;19931;-66
2023/09/17 06:07:32;;;;;;;;;;;17.40;99.90;;;;;;4912296;29;19919;-67
2023/09/17 06:09:58;;;;;;;;;;;17.30;99.90;;;;;;4914998;29;19923;-66
2023/09/17 06:12:24;;;;;;;;;;;17.30;99.90;;;;;;4962257;23;20609;-65
2023/09/17 06:14:50;;;;;;;;;;;17.30;99.90;;;;;;4946459;28;19926;-65
2023/09/17 06:17:15;;;;;;;;;;;17.30;99.90;;;;;;4952648;28;19928;-67
2023/09/17 06:19:41;;;;;;;;;;;17.30;99.90;;;;;;4932941;28;19934;-67
2023/09/17 06:22:07;;;;;;;;;;;17.40;99.90;;;;;;4922548;28;19922;-68
2023/09/17 06:24:32;;;;;;;;;;;17.40;99.90;;;;;;4931442;28;20132;-67
2023/09/17 06:27:12;;;;;;;;;;;17.40;99.90;;;;;;4916002;28;19962;-67
2023/09/17 06:29:42;;;;;;;;;;;17.40;99.90;;;;;;4938448;28;20385;-66
2023/09/17 06:32:08;;;;;;;;;;;17.40;99.90;;;;;;4936645;28;20001;-65
2023/09/17 06:34:34;;;;;;;;;;;17.30;99.90;;;;;;4960609;28;20088;-67
2023/09/17 06:37:01;;;;;;;;;;;17.40;99.90;;;;;;4911600;28;20021;-67
2023/09/17 06:39:26;;;;;;;;;;;17.30;99.90;;;;;;4920386;28;19922;-64
2023/09/17 06:41:52;;;;;;;;;;;17.40;99.90;;;;;;4901991;28;19930;-64
2023/09/17 06:44:18;;;;;;;;;;;17.30;99.90;;;;;;4905942;28;19953;-63
2023/09/17 06:46:46;;;;;;;;;;;17.30;99.90;;;;;;4927980;28;19988;-67
2023/09/17 06:49:12;;;;;;;;;;;17.30;99.90;;;;;;4941563;28;19925;-65
2023/09/17 06:51:38;;;;;;;;;;;17.40;99.90;;;;;;4937533;28;19918;-64
2023/09/17 06:54:09;;;;;;;;;;;17.40;99.90;;;;;;4909207;28;20640;-62
2023/09/17 06:56:35;;;;;;;;;;;17.40;99.90;;;;;;4927285;28;19922;-62
2023/09/17 06:59:01;;;;;;;;;;;17.40;99.90;;;;;;4929792;28;19958;-67
2023/09/17 07:01:27;;;;;;;;;;;17.40;99.90;;;;;;4927350;28;20009;-67
2023/09/17 07:04:20;;;;;;;;;;;17.40;99.90;;;;;;4933935;29;19929;-66
2023/09/17 07:07:41;;;;;;;;;;;17.50;99.90;;;;;;4897254;29;19942;-65
2023/09/17 07:13:13;;;;;;;;;;;17.70;99.90;;;;;;4946840;23;20419;-67
2023/09/17 07:16:05;;;;;;;;;;;17.70;99.90;;;;;;4967871;28;20102;-67
2023/09/17 07:18:31;;;;;;;;;;;17.80;99.90;;;;;;4964643;28;20045;-67
2023/09/17 07:20:57;;;;;;;;;;;18.00;99.90;;;;;;4968439;28;20005;-67
2023/09/17 07:31:39;;;;;;;;;;;;;;;;;;;;;
2023/09/17 07:34:11;;;;;;;;;;;18.20;99.90;;;;;;4895828;29;19927;-69
2023/09/17 07:36:37;;;;;;;;;;;18.30;99.90;;;;;;4921319;28;20028;-67
2023/09/17 07:39:03;;;;;;;;;;;18.40;99.90;;;;;;4968686;28;20778;-68
2023/09/17 07:41:29;;;;;;;;;;;18.50;99.90;;;;;;4954887;28;20020;-68
2023/09/17 07:43:58;;;;;;;;;;;18.60;99.90;;;;;;4956629;28;20024;-67
2023/09/17 07:46:27;;;;;;;;;;;18.60;99.90;;;;;;4953473;28;19972;-67
2023/09/17 07:48:53;;;;;;;;;;;18.70;99.90;;;;;;4962817;28;19922;-67
2023/09/17 07:51:21;;;;;;;;;;;18.70;99.90;;;;;;4961087;28;19922;-68
2023/09/17 07:53:53;;;;;;;;;;;18.70;99.90;;;;;;4956092;28;19922;-68
2023/09/17 07:56:21;;;;;;;;;;;18.70;99.90;;;;;;4971793;28;20021;-68
2023/09/17 07:58:47;;;;;;;;;;;18.70;99.90;;;;;;4962284;28;20372;-67
2023/09/17 08:01:14;;;;;;;;;;;18.70;99.90;;;;;;4948854;28;19918;-67
2023/09/17 08:07:04;;;;;;;;;;;18.80;99.90;;;;;;4917238;23;21246;-69
2023/09/17 08:09:30;;;;;;;;;;;19.00;99.90;;;;;;4964442;23;19929;-62
2023/09/17 08:11:55;;;;;;;;;;;19.30;99.90;;;;;;4951625;28;19932;-63
2023/09/17 08:14:22;;;;;;;;;;;19.60;99.90;;;;;;4962265;28;19936;-63
2023/09/17 08:16:49;;;;;;;;;;;19.90;99.90;;;;;;4961168;28;20077;-63
2023/09/17 08:19:15;;;;;;;;;;;21.30;99.90;;;;;;4931045;28;20382;-63
2023/09/17 08:21:40;;;;;;;;;;;22.70;99.90;;;;;;4970207;28;19922;-62
2023/09/17 08:24:06;;;;;;;;;;;23.50;99.90;;;;;;4961772;28;19949;-63
2023/09/17 08:26:32;;;;;;;;;;;23.60;99.90;;;;;;4977153;28;19928;-63
2023/09/17 08:29:00;;;;;;;;;;;23.10;99.90;;;;;;4975513;28;19921;-64
2023/09/17 08:31:28;;;;;;;;;;;22.20;99.90;;;;;;4957189;28;19921;-63
2023/09/17 08:34:06;;;;;;;;;;;21.80;99.90;;;;;;4950555;28;19925;-63
2023/09/17 08:36:32;;;;;;;;;;;21.40;99.90;;;;;;4924948;28;19922;-63
2023/09/17 08:38:58;;;;;;;;;;;21.30;99.90;;;;;;4931260;28;19926;-64
2023/09/17 08:41:23;;;;;;;;;;;21.30;99.90;;;;;;4958107;28;20248;-63
2023/09/17 08:43:51;;;;;;;;;;;21.40;99.90;;;;;;4967353;28;19922;-63
2023/09/17 08:46:16;;;;;;;;;;;21.30;99.90;;;;;;4959142;28;20152;-63
2023/09/17 08:48:45;;;;;;;;;;;21.30;99.90;;;;;;4972548;28;19924;-63
2023/09/17 08:51:16;;;;;;;;;;;21.30;99.90;;;;;;4956143;28;19988;-63
2023/09/17 08:53:54;;;;;;;;;;;21.30;99.90;;;;;;4966085;28;20007;-63
2023/09/17 08:56:19;;;;;;;;;;;21.40;99.90;;;;;;4987137;28;20378;-63
2023/09/17 08:58:58;;;;;;;;;;;21.40;99.90;;;;;;4955043;28;20188;-62
2023/09/17 09:01:24;;;;;;;;;;;21.50;99.90;;;;;;4957372;23;19930;-63
2023/09/17 09:04:05;;;;;;;;;;;21.50;99.90;;;;;;4917242;28;19918;-65
2023/09/17 09:06:32;;;;;;;;;;;21.60;99.90;;;;;;4968427;28;19968;-63
2023/09/17 09:08:59;;;;;;;;;;;21.70;99.90;;;;;;4975402;28;19921;-62
2023/09/17 09:11:25;;;;;;;;;;;21.90;99.90;;;;;;4965243;28;19918;-62
2023/09/17 09:14:09;;;;;;;;;;;22.00;99.90;;;;;;4975704;23;19933;-62
2023/09/17 09:16:44;;;;;;;;;;;22.10;99.90;;;;;;4976692;28;19926;-64
2023/09/17 09:19:13;;;;;;;;;;;22.20;99.90;;;;;;4945733;28;19957;-63
2023/09/17 09:21:41;;;;;;;;;;;22.30;99.90;;;;;;4971623;28;19992;-64
2023/09/17 09:24:07;;;;;;;;;;;22.40;99.90;;;;;;4950335;28;19917;-63
2023/09/17 09:26:33;;;;;;;;;;;22.50;99.90;;;;;;4966570;28;20155;-63
2023/09/17 09:28:59;;;;;;;;;;;22.60;99.90;;;;;;4976780;28;19922;-64
2023/09/17 09:31:31;;;;;;;;;;;22.80;99.90;;;;;;4965786;28;20465;-63
2023/09/17 09:34:05;;;;;;;;;;;22.90;99.90;;;;;;4981040;28;20040;-63
2023/09/17 09:36:36;;;;;;;;;;;23.00;99.90;;;;;;4960944;28;20346;-63
2023/09/17 09:39:02;;;;;;;;;;;23.10;99.90;;;;;;4959669;28;20012;-63
2023/09/17 09:41:29;;;;;;;;;;;23.20;99.90;;;;;;4958908;28;19957;-64
2023/09/17 09:43:56;;;;;;;;;;;23.20;99.90;;;;;;4966213;28;19976;-63
2023/09/17 09:46:26;;;;;;;;;;;23.30;99.90;;;;;;4936367;28;19976;-64
2023/09/17 09:49:25;;;;;;;;;;;23.30;99.90;;;;;;4955312;28;19918;-62
2023/09/17 09:54:52;;;;;;;;;;;23.20;99.90;;;;;;4916305;28;19921;-63
2023/09/17 09:57:18;;;;;;;;;;;23.40;99.90;;;;;;4978373;23;19929;-63
2023/09/17 10:00:14;;;;;;;;;;;23.50;99.90;;;;;;4970242;28;20720;-63
2023/09/17 10:02:43;;;;;;;;;;;23.60;99.90;;;;;;4964418;28;19964;-64
2023/09/17 10:05:37;;;;;;;;;;;23.70;99.90;;;;;;4932216;28;20048;-64
2023/09/17 10:08:22;;;;;;;;;;;23.70;99.90;;;;;;4925444;29;19926;-66
2023/09/17 10:11:31;;;;;;;;;;;23.80;99.90;;;;;;4918572;29;19927;-67
2023/09/17 10:14:06;;;;;;;;;;;23.70;99.90;;;;;;4930117;28;19922;-65
2023/09/17 10:16:36;;;;;;;;;;;23.90;99.90;;;;;;4931820;29;20288;-65
2023/09/17 10:19:04;;;;;;;;;;;24.00;99.90;;;;;;4935875;28;20677;-64
2023/09/17 10:21:32;;;;;;;;;;;24.00;99.90;;;;;;4938068;28;19953;-65
2023/09/17 10:24:00;;;;;;;;;;;24.10;99.90;;;;;;4941629;28;19926;-65
2023/09/17 10:26:37;;;;;;;;;;;24.10;99.90;;;;;;4925456;29;20533;-64
2023/09/17 10:29:27;;;;;;;;;;;24.10;99.90;;;;;;4881923;29;20212;-65
2023/09/17 10:31:58;;;;;;;;;;;24.10;99.90;;;;;;4914479;28;19982;-65
2023/09/17 10:35:09;;;;;;;;;;;24.10;99.90;;;;;;4978619;28;19925;-65
2023/09/17 10:37:57;;;;;;;;;;;24.00;99.90;;;;;;4957286;28;19925;-65
2023/09/17 10:40:24;;;;;;;;;;;24.10;99.90;;;;;;4965707;28;19944;-65
2023/09/17 10:42:52;;;;;;;;;;;24.20;99.90;;;;;;4983255;28;19928;-65
2023/09/17 10:45:18;;;;;;;;;;;24.30;99.90;;;;;;4977217;28;19918;-64
2023/09/17 10:47:45;;;;;;;;;;;24.30;99.90;;;;;;4970166;28;19928;-64
2023/09/17 10:50:13;;;;;;;;;;;24.30;99.90;;;;;;4980618;28;19917;-63
2023/09/17 10:52:52;;;;;;;;;;;;;;;;;;;;;
2023/09/17 10:55:26;;;;;;;;;;;24.50;99.90;;;;;;4969970;28;19926;-64
2023/09/17 10:58:06;;;;;;;;;;;24.40;99.90;;;;;;4970483;28;19922;-64
2023/09/17 11:00:35;;;;;;;;;;;24.60;99.90;;;;;;4960627;28;19924;-64
2023/09/17 11:03:03;;;;;;;;;;;24.50;99.90;;;;;;4943755;28;20326;-63
2023/09/17 11:05:55;;;;;;;;;;;24.40;99.90;;;;;;4941593;28;19968;-63
2023/09/17 11:08:21;;;;;;;;;;;24.40;99.90;;;;;;4974964;28;20131;-65
2023/09/17 11:10:47;;;;;;;;;;;24.30;99.90;;;;;;4979322;28;19929;-64
2023/09/17 11:13:13;;;;;;;;;;;24.30;99.90;;;;;;4938900;28;20377;-65
2023/09/17 11:15:41;;;;;;;;;;;24.40;99.90;;;;;;4973169;28;19925;-65
2023/09/17 11:18:07;;;;;;;;;;;24.50;99.90;;;;;;4976178;23;20356;-65
2023/09/17 11:20:33;;;;;;;;;;;24.50;99.90;;;;;;4953487;28;19922;-64
2023/09/17 11:23:00;;;;;;;;;;;24.50;99.90;;;;;;4968744;22;22030;-63
2023/09/17 11:25:36;;;;;;;;;;;24.50;99.90;;;;;;4909209;28;19922;-65
2023/09/17 11:28:10;;;;;;;;;;;24.50;99.90;;;;;;4935954;23;20014;-63
2023/09/17 11:31:02;;;;;;;;;;;24.40;99.90;;;;;;4924602;28;19930;-65
2023/09/17 11:33:28;;;;;;;;;;;24.30;99.90;;;;;;4924526;28;20009;-64
2023/09/17 11:35:59;;;;;;;;;;;24.30;99.90;;;;;;4929394;28;19985;-62
2023/09/17 11:38:30;;;;;;;;;;;24.30;99.90;;;;;;4901214;28;19926;-62
2023/09/17 11:41:09;;;;;;;;;;;24.50;99.90;;;;;;4933429;28;19922;-62
2023/09/17 11:43:39;;;;;;;;;;;24.50;99.90;;;;;;4935200;28;19938;-62
2023/09/17 11:46:06;;;;;;;;;;;24.50;99.90;;;;;;4943289;23;19954;-62
2023/09/17 11:48:32;;;;;;;;;;;24.60;99.90;;;;;;4954310;28;19984;-63
2023/09/17 11:51:17;;;;;;;;;;;24.70;99.90;;;;;;4928203;28;19918;-62
2023/09/17 11:54:01;;;;;;;;;;;24.80;99.90;;;;;;4957964;28;19914;-63
2023/09/17 11:56:28;;;;;;;;;;;24.80;99.90;;;;;;4939181;28;20643;-62
2023/09/17 11:59:02;;;;;;;;;;;24.80;99.90;;;;;;4917188;28;19926;-62
2023/09/17 12:01:29;;;;;;;;;;;24.80;99.90;;;;;;4900784;28;19929;-60
2023/09/17 12:03:55;;;;;;;;;;;24.70;99.90;;;;;;4940724;23;20012;-63
2023/09/17 12:06:27;;;;;;;;;;;24.80;99.90;;;;;;4939959;28;19934;-62
2023/09/17 12:08:55;;;;;;;;;;;24.80;99.90;;;;;;4955373;28;19926;-62
2023/09/17 12:11:24;;;;;;;;;;;24.60;99.90;;;;;;4923765;28;20504;-64
2023/09/17 12:13:53;;;;;;;;;;;24.50;99.90;;;;;;4916400;28;19918;-64
2023/09/17 12:16:26;;;;;;;;;;;24.40;99.90;;;;;;4962472;28;19918;-65
2023/09/17 12:18:53;;;;;;;;;;;24.40;99.90;;;;;;4919510;28;19932;-64
2023/09/17 12:21:22;;;;;;;;;;;24.70;99.90;;;;;;4938672;28;19918;-64
2023/09/17 12:28:30;;;;;;;;;;;24.90;99.90;;;;;;5102772;27;19916;-63
2023/09/17 12:30:56;;;;;;;;;;;25.10;99.90;;;;;;5089162;22;20562;-68
2023/09/17 12:33:33;;;;;;;;;;;25.20;99.90;;;;;;5080919;28;19920;-67
2023/09/17 12:42:21;;;;;;;;;;;25.10;99.90;;;;;;5018036;28;20006;-68
2023/09/17 12:44:47;;;;;;;;;;;25.00;99.90;;;;;;5052806;28;20713;-69
2023/09/17 12:47:16;;;;;;;;;;;25.10;99.90;;;;;;5053547;28;19932;-70
2023/09/17 12:49:42;;;;;;;;;;;25.10;99.90;;;;;;5001483;28;19931;-69
2023/09/17 12:52:08;;;;;;;;;;;25.10;99.90;;;;;;5054864;28;19946;-67
2023/09/17 12:54:33;;;;;;;;;;;25.10;99.90;;;;;;5036009;28;19929;-67
2023/09/17 12:56:59;;;;;;;;;;;25.00;99.90;;;;;;5025702;28;19928;-67
2023/09/17 12:59:29;;;;;;;;;;;24.90;99.90;;;;;;5029800;28;19925;-67
2023/09/17 13:02:05;;;;;;;;;;;25.00;99.90;;;;;;5026501;23;19988;-66
2023/09/17 13:07:14;;;;;;;;;;;24.80;99.90;;;;;;4986525;28;19933;-66
2023/09/17 13:09:46;;;;;;;;;;;24.90;99.90;;;;;;4997141;28;20500;-66
2023/09/17 13:12:23;;;;;;;;;;;25.00;99.90;;;;;;4968610;28;19926;-66
2023/09/17 13:15:07;;;;;;;;;;;24.90;99.90;;;;;;4975354;28;19965;-66
2023/09/17 13:17:32;;;;;;;;;;;25.00;99.90;;;;;;4956217;28;19931;-67
2023/09/17 13:20:01;;;;;;;;;;;25.10;99.90;;;;;;4956822;28;20390;-66
2023/09/17 13:22:27;;;;;;;;;;;25.20;99.90;;;;;;4943227;28;19969;-65
2023/09/17 13:25:02;;;;;;;;;;;25.30;99.90;;;;;;4955664;28;19953;-67
2023/09/17 13:27:48;;;;;;;;;;;25.10;99.90;;;;;;4939373;28;20102;-66
2023/09/17 13:32:46;;;;;;;;;;;25.10;99.90;;;;;;4952074;28;19965;-66
2023/09/17 13:35:13;;;;;;;;;;;24.90;99.90;;;;;;4959921;28;19926;-67
2023/09/17 13:37:39;;;;;;;;;;;24.80;99.90;;;;;;4957044;28;19973;-67
2023/09/17 13:48:22;;;;;;;;;;;24.70;99.90;;;;;;4802172;29;20325;-66
2023/09/17 13:51:06;;;;;;;;;;;24.50;99.90;;;;;;4805216;29;20155;-66
2023/09/17 13:54:11;;;;;;;;;;;;;;;;;;;;;
2023/09/17 13:57:03;;;;;;;;;;;24.30;99.90;;;;;;4817093;29;19925;-66
2023/09/17 13:59:31;;;;;;;;;;;24.30;99.90;;;;;;4795568;29;19925;-68
2023/09/17 14:01:57;;;;;;;;;;;24.30;99.90;;;;;;4922803;23;19961;-66
2023/09/17 14:04:23;;;;;;;;;;;24.40;99.90;;;;;;4960749;28;20039;-68
2023/09/17 14:06:55;;;;;;;;;;;24.40;99.90;;;;;;4932951;28;19922;-66
2023/09/17 14:09:45;;;;;;;;;;;24.40;99.90;;;;;;4978837;23;20547;-66
2023/09/17 14:12:10;;;;;;;;;;;24.50;99.90;;;;;;4955565;28;20314;-66
2023/09/17 14:14:42;;;;;;;;;;;24.50;99.90;;;;;;4958724;28;19929;-66
2023/09/17 14:17:08;;;;;;;;;;;24.30;99.90;;;;;;4954141;28;19944;-66
2023/09/17 14:19:34;;;;;;;;;;;24.30;99.90;;;;;;4931614;28;19933;-66
2023/09/17 14:22:00;;;;;;;;;;;24.10;99.90;;;;;;4934682;28;19926;-66
2023/09/17 14:24:28;;;;;;;;;;;24.00;99.90;;;;;;4943930;28;20791;-66
2023/09/17 14:27:00;;;;;;;;;;;24.00;99.90;;;;;;4958297;28;19933;-66
2023/09/17 14:29:30;;;;;;;;;;;24.10;99.90;;;;;;4961773;28;19934;-66
2023/09/17 14:31:56;;;;;;;;;;;24.00;99.90;;;;;;4941291;28;19922;-66
2023/09/17 14:34:25;;;;;;;;;;;24.00;99.90;;;;;;4968493;28;19925;-66
2023/09/17 14:36:51;;;;;;;;;;;24.00;99.90;;;;;;4972769;28;20070;-65
2023/09/17 14:39:16;;;;;;;;;;;24.00;99.90;;;;;;4966793;28;19932;-66
2023/09/17 14:41:45;;;;;;;;;;;24.00;99.90;;;;;;4973244;28;20301;-66
2023/09/17 14:44:27;;;;;;;;;;;23.90;99.90;;;;;;4964970;28;19926;-67
2023/09/17 14:47:05;;;;;;;;;;;23.90;99.90;;;;;;4958946;28;20395;-66
2023/09/17 14:49:31;;;;;;;;;;;23.90;99.90;;;;;;4944337;28;19941;-67
2023/09/17 14:51:57;;;;;;;;;;;23.90;99.90;;;;;;4949837;28;19945;-67
2023/09/17 14:54:31;;;;;;;;;;;23.90;99.90;;;;;;4977490;28;19944;-67
2023/09/17 14:56:56;;;;;;;;;;;24.00;99.90;;;;;;4944284;28;20024;-67
2023/09/17 14:59:25;;;;;;;;;;;23.90;99.90;;;;;;4963902;28;19926;-68
2023/09/17 15:01:59;;;;;;;;;;;23.80;99.90;;;;;;4978405;28;19926;-67
2023/09/17 15:04:28;;;;;;;;;;;23.70;99.90;;;;;;4939389;28;20025;-67
2023/09/17 15:06:54;;;;;;;;;;;23.70;99.90;;;;;;4972261;28;20919;-67
2023/09/17 15:09:20;;;;;;;;;;;23.70;99.90;;;;;;4963869;28;20591;-67
2023/09/17 15:11:46;;;;;;;;;;;23.60;99.90;;;;;;4957000;28;19922;-66
2023/09/17 15:14:25;;;;;;;;;;;23.50;99.90;;;;;;4971237;28;20040;-65
2023/09/17 15:16:51;;;;;;;;;;;23.30;99.90;;;;;;4950911;28;23106;-65
2023/09/17 15:19:33;;;;;;;;;;;23.30;99.90;;;;;;4946699;28;19930;-66
2023/09/17 15:22:21;;;;;;;;;;;23.30;99.90;;;;;;4953845;28;20322;-65
2023/09/17 15:24:56;;;;;;;;;;;23.20;99.90;;;;;;4958163;28;20370;-66
2023/09/17 15:27:26;;;;;;;;;;;23.20;99.90;;;;;;4979975;28;19976;-65
2023/09/17 15:29:52;;;;;;;;;;;23.20;99.90;;;;;;4961083;28;20424;-66
2023/09/17 15:32:21;;;;;;;;;;;23.20;99.90;;;;;;4948673;28;19926;-66
2023/09/17 15:34:47;;;;;;;;;;;23.20;99.90;;;;;;4958837;28;19945;-65
2023/09/17 15:37:16;;;;;;;;;;;23.20;99.90;;;;;;4949501;28;20225;-67
2023/09/17 15:39:48;;;;;;;;;;;23.10;99.90;;;;;;4943714;28;19923;-64
2023/09/17 15:42:16;;;;;;;;;;;23.10;99.90;;;;;;4922823;28;19934;-66
2023/09/17 15:44:42;;;;;;;;;;;23.00;99.90;;;;;;4965074;28;20404;-65
2023/09/17 15:47:29;;;;;;;;;;;23.00;99.90;;;;;;4958591;28;20122;-65
2023/09/17 15:50:05;;;;;;;;;;;23.00;99.90;;;;;;4942838;28;19926;-65
2023/09/17 15:52:32;;;;;;;;;;;23.00;99.90;;;;;;4939032;28;20250;-67